sensor_id;sensor_type;location;lat;lon;timestamp;pressure;altitude;pressure_sealevel;temperature;humidity
73240;BME280;61452;40.054;4.110;2023-09-08T00:04:37;101878.91;;;26.09;100.00
73240;BME280;61452;40.054;4.110;2023-09-08T00:09:39;101869.28;;;26.06;100.00
73240;BME280;61452;40.054;4.110;2023-09-08T00:14:42;101870.81;;;26.09;100.00
73240;BME280;61452;40.054;4.110;2023-09-08T00:19:44;101864.59;;;26.08;100.00
73240;BME280;61452;40.054;4.110;2023-09-08T00:24:46;101863.03;;;26.06;100.00
73240;BME280;61452;40.054;4.110;2023-09-08T00:29:49;101863.75;;;26.08;100.00
73240;BME280;61452;40.054;4.110;2023-09-08T00:34:51;101862.06;;;26.07;100.00
73240;BME280;61452;40.054;4.110;2023-09-08T00:39:53;101862.19;;;26.05;100.00
73240;BME280;61452;40.054;4.110;2023-09-08T00:44:55;101863.75;;;26.08;100.00
73240;BME280;61452;40.054;4.110;2023-09-08T00:49:57;101867.44;;;26.07;100.00
73240;BME280;61452;40.054;4.110;2023-09-08T00:55:00;101874.38;;;26.09;100.00
73240;BME280;61452;40.054;4.110;2023-09-08T01:00:02;101873.66;;;26.07;100.00
73240;BME280;61452;40.054;4.110;2023-09-08T01:05:07;101863.75;;;26.08;100.00
73240;BME280;61452;40.054;4.110;2023-09-08T01:10:10;101861.19;;;26.06;100.00
73240;BME280;61452;40.054;4.110;2023-09-08T01:15:13;101863.03;;;26.06;100.00
73240;BME280;61452;40.054;4.110;2023-09-08T01:20:24;101854.13;;;26.05;100.00
73240;BME280;61452;40.054;4.110;2023-09-08T01:25:28;101853.13;;;26.06;100.00
73240;BME280;61452;40.054;4.110;2023-09-08T01:30:32;101853.28;;;26.05;100.00
73240;BME280;61452;40.054;4.110;2023-09-08T01:35:35;101846.06;;;26.05;100.00
73240;BME280;61452;40.054;4.110;2023-09-08T01:40:38;101847.91;;;26.05;100.00
73240;BME280;61452;40.054;4.110;2023-09-08T01:45:40;101847.06;;;26.04;100.00
73240;BME280;61452;40.054;4.110;2023-09-08T01:50:43;101847.22;;;26.03;100.00
73240;BME280;61452;40.054;4.110;2023-09-08T01:55:47;101837.44;;;26.02;100.00
73240;BME280;61452;40.054;4.110;2023-09-08T02:00:50;101841.00;;;26.02;100.00
73240;BME280;61452;40.054;4.110;2023-09-08T02:05:53;101841.13;;;26.01;100.00
73240;BME280;61452;40.054;4.110;2023-09-08T02:10:55;101851.88;;;26.01;100.00
73240;BME280;61452;40.054;4.110;2023-09-08T02:15:57;101850.91;;;26.02;100.00
73240;BME280;61452;40.054;4.110;2023-09-08T02:21:00;101849.06;;;26.02;100.00
73240;BME280;61452;40.054;4.110;2023-09-08T02:26:02;101849.19;;;26.01;100.00
73240;BME280;61452;40.054;4.110;2023-09-08T02:31:05;101847.50;;;26.00;100.00
73240;BME280;61452;40.054;4.110;2023-09-08T02:36:08;101855.56;;;26.00;100.00
73240;BME280;61452;40.054;4.110;2023-09-08T02:41:13;101842.13;;;26.00;100.00
73240;BME280;61452;40.054;4.110;2023-09-08T02:46:15;101849.34;;;25.99;100.00
73240;BME280;61452;40.054;4.110;2023-09-08T02:51:18;101850.19;;;26.00;100.00
73240;BME280;61452;40.054;4.110;2023-09-08T02:56:20;101853.88;;;25.99;100.00
73240;BME280;61452;40.054;4.110;2023-09-08T03:01:22;101854.56;;;26.01;100.00
73240;BME280;61452;40.054;4.110;2023-09-08T03:06:25;101847.50;;;26.00;100.00
73240;BME280;61452;40.054;4.110;2023-09-08T03:11:27;101851.19;;;25.99;100.00
73240;BME280;61452;40.054;4.110;2023-09-08T03:16:30;101849.78;;;25.95;100.00
73240;BME280;61452;40.054;4.110;2023-09-08T03:21:33;101862.25;;;25.96;100.00
73240;BME280;61452;40.054;4.110;2023-09-08T03:26:35;101864.09;;;25.95;100.00
73240;BME280;61452;40.054;4.110;2023-09-08T03:31:37;101860.41;;;25.96;100.00
73240;BME280;61452;40.054;4.110;2023-09-08T03:36:40;101869.59;;;25.94;100.00
73240;BME280;61452;40.054;4.110;2023-09-08T03:41:42;101858.00;;;25.93;100.00
73240;BME280;61452;40.054;4.110;2023-09-08T03:46:45;101850.50;;;25.97;100.00
73240;BME280;61452;40.054;4.110;2023-09-08T03:51:48;101850.63;;;25.95;100.00
73240;BME280;61452;40.054;4.110;2023-09-08T03:56:50;101852.63;;;25.93;100.00
73240;BME280;61452;40.054;4.110;2023-09-08T04:01:53;101850.97;;;25.92;100.00
73240;BME280;61452;40.054;4.110;2023-09-08T04:06:55;101860.00;;;25.91;100.00
73240;BME280;61452;40.054;4.110;2023-09-08T04:11:57;101850.09;;;25.92;100.00
73240;BME280;61452;40.054;4.110;2023-09-08T04:17:00;101848.41;;;25.91;100.00
73240;BME280;61452;40.054;4.110;2023-09-08T04:22:02;101844.72;;;25.92;100.00
73240;BME280;61452;40.054;4.110;2023-09-08T04:27:06;101846.72;;;25.90;100.00
73240;BME280;61452;40.054;4.110;2023-09-08T04:32:10;101842.31;;;25.89;100.00
73240;BME280;61452;40.054;4.110;2023-09-08T04:37:12;101850.38;;;25.89;100.00
73240;BME280;61452;40.054;4.110;2023-09-08T04:42:14;101847.00;;;25.87;100.00
73240;BME280;61452;40.054;4.110;2023-09-08T04:47:17;101848.81;;;25.86;100.00
73240;BME280;61452;40.054;4.110;2023-09-08T04:52:20;101846.84;;;25.88;100.00
73240;BME280;61452;40.054;4.110;2023-09-08T04:57:22;101845.00;;;25.89;100.00
73240;BME280;61452;40.054;4.110;2023-09-08T05:02:30;101846.00;;;25.88;100.00
73240;BME280;61452;40.054;4.110;2023-09-08T05:07:32;101863.13;;;25.87;100.00
73240;BME280;61452;40.054;4.110;2023-09-08T05:12:35;101855.22;;;25.85;100.00
73240;BME280;61452;40.054;4.110;2023-09-08T05:17:37;101862.56;;;25.83;100.00
73240;BME280;61452;40.054;4.110;2023-09-08T05:22:40;101865.28;;;25.83;100.00
73240;BME280;61452;40.054;4.110;2023-09-08T05:27:42;101872.34;;;25.84;100.00
73240;BME280;61452;40.054;4.110;2023-09-08T05:32:45;101865.13;;;25.85;100.00
73240;BME280;61452;40.054;4.110;2023-09-08T05:37:47;101872.34;;;25.84;100.00
73240;BME280;61452;40.054;4.110;2023-09-08T05:42:49;101876.88;;;25.84;100.00
73240;BME280;61452;40.054;4.110;2023-09-08T05:47:52;101877.00;;;25.82;100.00
73240;BME280;61452;40.054;4.110;2023-09-08T05:52:54;101882.38;;;25.82;100.00
73240;BME280;61452;40.054;4.110;2023-09-08T05:57:57;101891.44;;;25.81;100.00
73240;BME280;61452;40.054;4.110;2023-09-08T06:02:59;101892.16;;;25.83;100.00
73240;BME280;61452;40.054;4.110;2023-09-08T06:08:02;101899.38;;;25.83;100.00
73240;BME280;61452;40.054;4.110;2023-09-08T06:13:13;101893.84;;;25.84;100.00
73240;BME280;61452;40.054;4.110;2023-09-08T06:18:17;101895.69;;;25.84;100.00
73240;BME280;61452;40.054;4.110;2023-09-08T06:23:22;101894.84;;;25.83;100.00
73240;BME280;61452;40.054;4.110;2023-09-08T06:28:26;101888.59;;;25.83;100.00
73240;BME280;61452;40.054;4.110;2023-09-08T06:33:29;101889.59;;;25.82;100.00
73240;BME280;61452;40.054;4.110;2023-09-08T06:38:33;101896.53;;;25.84;100.00
73240;BME280;61452;40.054;4.110;2023-09-08T06:43:36;101901.19;;;25.82;100.00
73240;BME280;61452;40.054;4.110;2023-09-08T06:48:44;101893.13;;;25.82;100.00
73240;BME280;61452;40.054;4.110;2023-09-08T06:53:57;101899.38;;;25.83;100.00
73240;BME280;61452;40.054;4.110;2023-09-08T06:59:04;101891.31;;;25.83;100.00
73240;BME280;61452;40.054;4.110;2023-09-08T07:04:07;101896.69;;;25.83;100.00
73240;BME280;61452;40.054;4.110;2023-09-08T07:09:09;101902.19;;;25.81;100.00
73240;BME280;61452;40.054;4.110;2023-09-08T07:14:12;101903.03;;;25.82;100.00
73240;BME280;61452;40.054;4.110;2023-09-08T07:19:14;101907.28;;;25.84;100.00
73240;BME280;61452;40.054;4.110;2023-09-08T07:24:17;101908.16;;;25.85;100.00
73240;BME280;61452;40.054;4.110;2023-09-08T07:29:20;101899.38;;;25.83;100.00
73240;BME280;61452;40.054;4.110;2023-09-08T07:34:22;101903.88;;;25.82;100.00
73240;BME280;61452;40.054;4.110;2023-09-08T07:39:25;101905.72;;;25.82;100.00
73240;BME280;61452;40.054;4.110;2023-09-08T07:44:27;101907.44;;;25.83;100.00
73240;BME280;61452;40.054;4.110;2023-09-08T07:49:32;101911.97;;;25.82;100.00
73240;BME280;61452;40.054;4.110;2023-09-08T07:54:35;101910.97;;;25.83;100.00
73240;BME280;61452;40.054;4.110;2023-09-08T07:59:37;101918.91;;;25.85;100.00
73240;BME280;61452;40.054;4.110;2023-09-08T08:04:39;101928.94;;;25.83;100.00
73240;BME280;61452;40.054;4.110;2023-09-08T08:09:42;101930.63;;;25.84;100.00
73240;BME280;61452;40.054;4.110;2023-09-08T08:14:46;101937.00;;;25.83;100.00
73240;BME280;61452;40.054;4.110;2023-09-08T08:19:49;101939.56;;;25.84;100.00
73240;BME280;61452;40.054;4.110;2023-09-08T08:24:51;101944.06;;;25.84;100.00
73240;BME280;61452;40.054;4.110;2023-09-08T08:29:53;101938.69;;;25.84;100.00
73240;BME280;61452;40.054;4.110;2023-09-08T08:34:56;101944.94;;;25.84;100.00
73240;BME280;61452;40.054;4.110;2023-09-08T08:39:58;101941.38;;;25.84;100.00
73240;BME280;61452;40.054;4.110;2023-09-08T08:45:00;101943.22;;;25.83;100.00
73240;BME280;61452;40.054;4.110;2023-09-08T08:50:04;101945.06;;;25.83;100.00
73240;BME280;61452;40.054;4.110;2023-09-08T08:55:07;101941.25;;;25.85;100.00
73240;BME280;61452;40.054;4.110;2023-09-08T09:00:11;101942.25;;;25.84;100.00
73240;BME280;61452;40.054;4.110;2023-09-08T09:05:15;101940.41;;;25.85;100.00
73240;BME280;61452;40.054;4.110;2023-09-08T09:10:17;101941.38;;;25.84;100.00
73240;BME280;61452;40.054;4.110;2023-09-08T09:15:28;101942.25;;;25.84;100.00
73240;BME280;61452;40.054;4.110;2023-09-08T09:20:31;101948.47;;;25.85;100.00
73240;BME280;61452;40.054;4.110;2023-09-08T09:25:33;101952.41;;;25.90;100.00
73240;BME280;61452;40.054;4.110;2023-09-08T09:30:50;101951.84;;;25.87;100.00
73240;BME280;61452;40.054;4.110;2023-09-08T09:35:54;101950.97;;;25.86;100.00
73240;BME280;61452;40.054;4.110;2023-09-08T09:40:56;101952.69;;;25.87;100.00
73240;BME280;61452;40.054;4.110;2023-09-08T09:45:59;101953.53;;;25.88;100.00
73240;BME280;61452;40.054;4.110;2023-09-08T09:51:15;101959.91;;;25.87;100.00
73240;BME280;61452;40.054;4.110;2023-09-08T09:56:19;101965.28;;;25.87;100.00
73240;BME280;61452;40.054;4.110;2023-09-08T10:01:24;101967.13;;;25.86;100.00
73240;BME280;61452;40.054;4.110;2023-09-08T10:06:27;101963.44;;;25.87;100.00
73240;BME280;61452;40.054;4.110;2023-09-08T10:11:29;101958.91;;;25.88;100.00
73240;BME280;61452;40.054;4.110;2023-09-08T10:16:38;101958.06;;;25.87;100.00
73240;BME280;61452;40.054;4.110;2023-09-08T10:21:42;101962.59;;;25.87;100.00
73240;BME280;61452;40.054;4.110;2023-09-08T10:26:47;101957.06;;;25.88;100.00
73240;BME280;61452;40.054;4.110;2023-09-08T10:31:54;101965.16;;;25.88;100.00
73240;BME280;61452;40.054;4.110;2023-09-08T10:36:57;101963.44;;;25.87;100.00
73240;BME280;61452;40.054;4.110;2023-09-08T10:42:31;101957.66;;;25.92;100.00
73240;BME280;61452;40.054;4.110;2023-09-08T10:53:23;101961.19;;;25.92;100.00
73240;BME280;61452;40.054;4.110;2023-09-08T10:58:35;101963.03;;;25.92;100.00
73240;BME280;61452;40.054;4.110;2023-09-08T11:03:46;101957.66;;;25.92;100.00
73240;BME280;61452;40.054;4.110;2023-09-08T11:08:50;101954.13;;;25.91;100.00
73240;BME280;61452;40.054;4.110;2023-09-08T11:13:58;101942.50;;;25.91;100.00
73240;BME280;61452;40.054;4.110;2023-09-08T11:19:03;101943.47;;;25.99;100.00
73240;BME280;61452;40.054;4.110;2023-09-08T11:24:07;101943.44;;;26.09;100.00
73240;BME280;61452;40.054;4.110;2023-09-08T11:29:09;101937.94;;;26.10;100.00
73240;BME280;61452;40.054;4.110;2023-09-08T11:34:11;101936.22;;;26.09;100.00
73240;BME280;61452;40.054;4.110;2023-09-08T11:39:15;101930.59;;;26.03;100.00
73240;BME280;61452;40.054;4.110;2023-09-08T11:44:18;101921.66;;;26.02;100.00
73240;BME280;61452;40.054;4.110;2023-09-08T11:49:21;101922.38;;;26.04;100.00
73240;BME280;61452;40.054;4.110;2023-09-08T11:54:25;101933.34;;;26.11;100.00
73240;BME280;61452;40.054;4.110;2023-09-08T11:59:28;101929.28;;;26.07;100.00
73240;BME280;61452;40.054;4.110;2023-09-08T12:04:35;101920.69;;;26.03;100.00
73240;BME280;61452;40.054;4.110;2023-09-08T12:09:37;101932.41;;;26.02;100.00
73240;BME280;61452;40.054;4.110;2023-09-08T12:14:43;101933.28;;;26.03;100.00
73240;BME280;61452;40.054;4.110;2023-09-08T12:19:48;101918.84;;;26.04;100.00
73240;BME280;61452;40.054;4.110;2023-09-08T12:29:59;101920.81;;;26.02;100.00
73240;BME280;61452;40.054;4.110;2023-09-08T12:35:03;101914.59;;;26.01;100.00
73240;BME280;61452;40.054;4.110;2023-09-08T12:40:06;101919.81;;;26.03;100.00
73240;BME280;61452;40.054;4.110;2023-09-08T12:45:09;101909.06;;;26.03;100.00
73240;BME280;61452;40.054;4.110;2023-09-08T12:50:12;101911.75;;;26.03;100.00
73240;BME280;61452;40.054;4.110;2023-09-08T12:55:17;101916.16;;;26.04;100.00
73240;BME280;61452;40.054;4.110;2023-09-08T13:00:20;101911.63;;;26.04;100.00
73240;BME280;61452;40.054;4.110;2023-09-08T13:05:24;101902.53;;;26.05;100.00
73240;BME280;61452;40.054;4.110;2023-09-08T13:10:27;101901.69;;;26.05;100.00
73240;BME280;61452;40.054;4.110;2023-09-08T13:15:29;101896.16;;;26.06;100.00
73240;BME280;61452;40.054;4.110;2023-09-08T13:20:31;101881.19;;;26.04;100.00
73240;BME280;61452;40.054;4.110;2023-09-08T13:25:34;101885.53;;;26.05;100.00
73240;BME280;61452;40.054;4.110;2023-09-08T13:30:36;101891.63;;;26.07;100.00
73240;BME280;61452;40.054;4.110;2023-09-08T13:35:38;101885.25;;;26.08;100.00
73240;BME280;61452;40.054;4.110;2023-09-08T13:40:41;101881.72;;;26.07;100.00
73240;BME280;61452;40.054;4.110;2023-09-08T13:45:43;101871.09;;;26.06;100.00
73240;BME280;61452;40.054;4.110;2023-09-08T13:50:45;101878.03;;;26.08;100.00
73240;BME280;61452;40.054;4.110;2023-09-08T13:55:48;101874.50;;;26.08;100.00
73240;BME280;61452;40.054;4.110;2023-09-08T14:00:52;101872.66;;;26.08;100.00
73240;BME280;61452;40.054;4.110;2023-09-08T14:06:00;101870.81;;;26.09;100.00
73240;BME280;61452;40.054;4.110;2023-09-08T14:11:10;101872.66;;;26.08;100.00
73240;BME280;61452;40.054;4.110;2023-09-08T14:16:21;101878.91;;;26.09;100.00
73240;BME280;61452;40.054;4.110;2023-09-08T14:21:23;101871.69;;;26.09;100.00
73240;BME280;61452;40.054;4.110;2023-09-08T14:26:25;101868.13;;;26.09;100.00
73240;BME280;61452;40.054;4.110;2023-09-08T14:31:27;101863.59;;;26.09;100.00
73240;BME280;61452;40.054;4.110;2023-09-08T14:36:30;101853.69;;;26.10;100.00
73240;BME280;61452;40.054;4.110;2023-09-08T14:41:32;101856.38;;;26.10;100.00
73240;BME280;61452;40.054;4.110;2023-09-08T14:46:34;101843.94;;;26.09;100.00
73240;BME280;61452;40.054;4.110;2023-09-08T14:51:36;101841.09;;;26.10;100.00
73240;BME280;61452;40.054;4.110;2023-09-08T14:56:38;101840.94;;;26.12;100.00
73240;BME280;61452;40.054;4.110;2023-09-08T15:01:41;101839.22;;;26.11;100.00
73240;BME280;61452;40.054;4.110;2023-09-08T15:06:45;101842.78;;;26.11;100.00
73240;BME280;61452;40.054;4.110;2023-09-08T15:11:47;101832.00;;;26.11;100.00
73240;BME280;61452;40.054;4.110;2023-09-08T15:16:49;101830.34;;;26.10;100.00
73240;BME280;61452;40.054;4.110;2023-09-08T15:21:52;101833.72;;;26.12;100.00
73240;BME280;61452;40.054;4.110;2023-09-08T15:26:54;101820.25;;;26.12;100.00
73240;BME280;61452;40.054;4.110;2023-09-08T15:31:56;101836.41;;;26.12;100.00
73240;BME280;61452;40.054;4.110;2023-09-08T15:36:58;101831.03;;;26.12;100.00
73240;BME280;61452;40.054;4.110;2023-09-08T15:42:01;101835.41;;;26.13;100.00
73240;BME280;61452;40.054;4.110;2023-09-08T15:47:04;101844.31;;;26.14;100.00
73240;BME280;61452;40.054;4.110;2023-09-08T15:52:06;101845.19;;;26.14;100.00
73240;BME280;61452;40.054;4.110;2023-09-08T15:57:17;101848.84;;;26.13;100.00
73240;BME280;61452;40.054;4.110;2023-09-08T16:02:19;101847.00;;;26.14;100.00
73240;BME280;61452;40.054;4.110;2023-09-08T16:07:22;101855.09;;;26.14;100.00
73240;BME280;61452;40.054;4.110;2023-09-08T16:12:24;101852.25;;;26.15;100.00
73240;BME280;61452;40.054;4.110;2023-09-08T16:17:26;101847.88;;;26.14;100.00
73240;BME280;61452;40.054;4.110;2023-09-08T16:22:29;101839.94;;;26.13;100.00
73240;BME280;61452;40.054;4.110;2023-09-08T16:27:32;101845.47;;;26.11;100.00
73240;BME280;61452;40.054;4.110;2023-09-08T16:32:34;101828.31;;;26.12;100.00
73240;BME280;61452;40.054;4.110;2023-09-08T16:37:36;101832.72;;;26.13;100.00
73240;BME280;61452;40.054;4.110;2023-09-08T16:42:39;101830.03;;;26.13;100.00
73240;BME280;61452;40.054;4.110;2023-09-08T16:47:41;101838.81;;;26.15;100.00
73240;BME280;61452;40.054;4.110;2023-09-08T16:52:44;101840.78;;;26.13;100.00
73240;BME280;61452;40.054;4.110;2023-09-08T16:57:46;101840.78;;;26.13;100.00
73240;BME280;61452;40.054;4.110;2023-09-08T17:02:48;101827.19;;;26.15;100.00
73240;BME280;61452;40.054;4.110;2023-09-08T17:07:51;101834.41;;;26.14;100.00
73240;BME280;61452;40.054;4.110;2023-09-08T17:12:54;101836.97;;;26.16;100.00
73240;BME280;61452;40.054;4.110;2023-09-08T17:17:56;101840.66;;;26.15;100.00
73240;BME280;61452;40.054;4.110;2023-09-08T17:22:59;101833.41;;;26.15;100.00
73240;BME280;61452;40.054;4.110;2023-09-08T17:28:01;101826.22;;;26.16;100.00
73240;BME280;61452;40.054;4.110;2023-09-08T17:33:04;101829.75;;;26.16;100.00
73240;BME280;61452;40.054;4.110;2023-09-08T17:38:06;101822.34;;;26.18;100.00
73240;BME280;61452;40.054;4.110;2023-09-08T17:43:08;101822.66;;;26.15;100.00
73240;BME280;61452;40.054;4.110;2023-09-08T17:48:11;101819.81;;;26.17;100.00
73240;BME280;61452;40.054;4.110;2023-09-08T17:53:13;101824.19;;;26.18;100.00
73240;BME280;61452;40.054;4.110;2023-09-08T17:58:15;101826.03;;;26.17;100.00
73240;BME280;61452;40.054;4.110;2023-09-08T18:03:17;101826.88;;;26.18;100.00
73240;BME280;61452;40.054;4.110;2023-09-08T18:08:23;101833.97;;;26.19;100.00
73240;BME280;61452;40.054;4.110;2023-09-08T18:13:25;101827.59;;;26.20;100.00
73240;BME280;61452;40.054;4.110;2023-09-08T18:18:27;101829.44;;;26.19;100.00
73240;BME280;61452;40.054;4.110;2023-09-08T18:23:30;101831.13;;;26.21;100.00
73240;BME280;61452;40.054;4.110;2023-09-08T18:28:32;101828.44;;;26.21;100.00
73240;BME280;61452;40.054;4.110;2023-09-08T18:33:35;101843.72;;;26.20;100.00
73240;BME280;61452;40.054;4.110;2023-09-08T18:38:37;101849.94;;;26.21;100.00
73240;BME280;61452;40.054;4.110;2023-09-08T18:43:40;101854.34;;;26.22;100.00
73240;BME280;61452;40.054;4.110;2023-09-08T18:48:42;101868.78;;;26.21;100.00
73240;BME280;61452;40.054;4.110;2023-09-08T18:53:45;101869.63;;;26.21;100.00
73240;BME280;61452;40.054;4.110;2023-09-08T18:58:48;101875.16;;;26.19;100.00
73240;BME280;61452;40.054;4.110;2023-09-08T19:03:51;101877.00;;;26.19;100.00
73240;BME280;61452;40.054;4.110;2023-09-08T19:08:53;101884.06;;;26.20;100.00
73240;BME280;61452;40.054;4.110;2023-09-08T19:13:55;101885.91;;;26.19;100.00
73240;BME280;61452;40.054;4.110;2023-09-08T19:18:57;101885.91;;;26.19;100.00
73240;BME280;61452;40.054;4.110;2023-09-08T19:24:00;101881.38;;;26.20;100.00
73240;BME280;61452;40.054;4.110;2023-09-08T19:29:02;101886.91;;;26.18;100.00
73240;BME280;61452;40.054;4.110;2023-09-08T19:34:05;101886.91;;;26.18;100.00
73240;BME280;61452;40.054;4.110;2023-09-08T19:39:07;101897.00;;;26.16;100.00
73240;BME280;61452;40.054;4.110;2023-09-08T19:44:10;101899.69;;;26.16;100.00
73240;BME280;61452;40.054;4.110;2023-09-08T19:49:12;101900.50;;;26.17;100.00
73240;BME280;61452;40.054;4.110;2023-09-08T19:54:14;101897.81;;;26.17;100.00
73240;BME280;61452;40.054;4.110;2023-09-08T19:59:17;101890.75;;;26.16;100.00
73240;BME280;61452;40.054;4.110;2023-09-08T20:04:20;101890.75;;;26.16;100.00
73240;BME280;61452;40.054;4.110;2023-09-08T20:09:22;101887.91;;;26.17;100.00
73240;BME280;61452;40.054;4.110;2023-09-08T20:14:25;101894.44;;;26.15;100.00
73240;BME280;61452;40.054;4.110;2023-09-08T20:19:28;101886.50;;;26.13;100.00
73240;BME280;61452;40.054;4.110;2023-09-08T20:24:30;101902.78;;;26.12;100.00
73240;BME280;61452;40.054;4.110;2023-09-08T20:29:33;101905.47;;;26.12;100.00
73240;BME280;61452;40.054;4.110;2023-09-08T20:34:35;101897.59;;;26.10;100.00
73240;BME280;61452;40.054;4.110;2023-09-08T20:39:37;101895.72;;;26.11;100.00
73240;BME280;61452;40.054;4.110;2023-09-08T20:44:40;101900.28;;;26.10;100.00
73240;BME280;61452;40.054;4.110;2023-09-08T20:49:43;101888.66;;;26.10;100.00
73240;BME280;61452;40.054;4.110;2023-09-08T20:54:45;101891.19;;;26.11;100.00
73240;BME280;61452;40.054;4.110;2023-09-08T20:59:47;101890.19;;;26.12;100.00
73240;BME280;61452;40.054;4.110;2023-09-08T21:04:49;101891.19;;;26.11;100.00
73240;BME280;61452;40.054;4.110;2023-09-08T21:09:52;101886.66;;;26.12;100.00
73240;BME280;61452;40.054;4.110;2023-09-08T21:14:55;101883.28;;;26.10;100.00
73240;BME280;61452;40.054;4.110;2023-09-08T21:19:57;101876.75;;;26.12;100.00
73240;BME280;61452;40.054;4.110;2023-09-08T21:25:01;101884.13;;;26.10;100.00
73240;BME280;61452;40.054;4.110;2023-09-08T21:30:03;101883.97;;;26.12;100.00
73240;BME280;61452;40.054;4.110;2023-09-08T21:35:06;101888.34;;;26.13;100.00
73240;BME280;61452;40.054;4.110;2023-09-08T21:40:09;101878.75;;;26.10;100.00
73240;BME280;61452;40.054;4.110;2023-09-08T21:45:11;101887.63;;;26.11;100.00
73240;BME280;61452;40.054;4.110;2023-09-08T21:50:14;101881.44;;;26.10;100.00
73240;BME280;61452;40.054;4.110;2023-09-08T21:55:16;101883.97;;;26.12;100.00
73240;BME280;61452;40.054;4.110;2023-09-08T22:00:20;101879.75;;;26.09;100.00
73240;BME280;61452;40.054;4.110;2023-09-08T22:05:23;101883.56;;;26.07;100.00
73240;BME280;61452;40.054;4.110;2023-09-08T22:10:25;101883.69;;;26.05;100.00
73240;BME280;61452;40.054;4.110;2023-09-08T22:15:28;101885.53;;;26.05;100.00
73240;BME280;61452;40.054;4.110;2023-09-08T22:20:30;101878.50;;;26.04;100.00
73240;BME280;61452;40.054;4.110;2023-09-08T22:25:32;101885.53;;;26.05;100.00
73240;BME280;61452;40.054;4.110;2023-09-08T22:30:35;101883.56;;;26.07;100.00
73240;BME280;61452;40.054;4.110;2023-09-08T22:35:38;101875.63;;;26.05;100.00
73240;BME280;61452;40.054;4.110;2023-09-08T22:40:40;101882.03;;;26.04;100.00
73240;BME280;61452;40.054;4.110;2023-09-08T22:45:42;101880.16;;;26.05;100.00
73240;BME280;61452;40.054;4.110;2023-09-08T22:50:49;101878.19;;;26.07;100.00
73240;BME280;61452;40.054;4.110;2023-09-08T22:55:51;101880.03;;;26.06;100.00
73240;BME280;61452;40.054;4.110;2023-09-08T23:00:54;101877.34;;;26.06;100.00
73240;BME280;61452;40.054;4.110;2023-09-08T23:05:56;101871.41;;;26.03;100.00
73240;BME280;61452;40.054;4.110;2023-09-08T23:10:58;101872.28;;;26.03;100.00
73240;BME280;61452;40.054;4.110;2023-09-08T23:16:00;101874.97;;;26.03;100.00
73240;BME280;61452;40.054;4.110;2023-09-08T23:21:03;101870.56;;;26.02;100.00
73240;BME280;61452;40.054;4.110;2023-09-08T23:26:05;101866.03;;;26.03;100.00
73240;BME280;61452;40.054;4.110;2023-09-08T23:31:07;101856.28;;;26.02;100.00
73240;BME280;61452;40.054;4.110;2023-09-08T23:36:10;101859.94;;;26.01;100.00
73240;BME280;61452;40.054;4.110;2023-09-08T23:41:14;101854.56;;;26.01;100.00
73240;BME280;61452;40.054;4.110;2023-09-08T23:46:16;101859.94;;;26.01;100.00
73240;BME280;61452;40.054;4.110;2023-09-08T23:51:18;101852.75;;;26.01;100.00
73240;BME280;61452;40.054;4.110;2023-09-08T23:56:20;101848.34;;;26.00;100.00
